Weather at Haji Muhammad Sidik Airport

Public forecast

Using degrees Celsius for public forecast. Weather courtesy of forecast.io.

Closest aviation weather report (METAR) to Haji Muhammad Sidik Airport

Closest report is Sultan Aji Muhammad Sulaiman Sepinggan International Airport, 118.9 nm (220.2 km) E.

2023/03/25 20:30 (retrieved 34 minutes ago)

WALL 252030Z 32002KT 9000 FEW018CB BKN020 26/24 Q1008RMK CB TO S AND SE

Closest aviation forecast (TAF) to Haji Muhammad Sidik Airport

Closest forecast is Sultan Aji Muhammad Sulaiman Sepinggan International Airport, 118.9 nm (220.2 km) E.

2023/03/25 18:00 (retrieved 3 hours ago)

TAF WALL 251700Z 2518/2624 36003KT 9000 FEW018CB BKN020 BECMG 2518/2520 SCT020